Time;durP1;ratioP1;P1;durP2;ratioP2;P2;SDS_P1;SDS_P2;PMS_P1;PMS_P2;Temp;Humidity;BMP_temperature;BMP_pressure;BME280_temperature;BME280_humidity;BME280_pressure;Samples;Min_cycle;Max_cycle;Signal;HPM_P1;HPM_P2
2022/08/04 00:00:10;;;;;;;65.15;52.25;;;27.40;54.90;;;;;;4932308;28;90167;-57
2022/08/04 00:02:51;;;;;;;64.03;52.40;;;27.40;55.00;;;;;;4935402;28;91419;-58
2022/08/04 00:05:46;;;;;;;64.15;52.35;;;27.40;55.00;;;;;;4942287;28;91285;-57
2022/08/04 00:08:38;;;;;;;64.38;52.15;;;27.40;55.10;;;;;;4930263;28;90692;-58
2022/08/04 00:11:07;;;;;;;64.43;52.03;;;27.40;55.00;;;;;;4932194;28;91810;-59
2022/08/04 00:13:41;;;;;;;63.58;52.00;;;27.40;55.00;;;;;;4950005;28;90334;-59
2022/08/04 00:16:08;;;;;;;65.40;52.30;;;27.40;54.90;;;;;;4948009;28;91902;-54
2022/08/04 00:18:56;;;;;;;65.28;52.42;;;27.40;54.90;;;;;;4933803;28;90906;-57
2022/08/04 00:21:24;;;;;;;65.93;52.35;;;27.40;54.90;;;;;;4942529;28;90197;-56
2022/08/04 00:23:51;;;;;;;63.10;52.05;;;27.40;54.90;;;;;;4937201;28;90189;-57
2022/08/04 00:26:18;;;;;;;63.58;51.95;;;27.40;55.00;;;;;;4937600;28;90881;-58
2022/08/04 00:28:43;;;;;;;64.85;52.30;;;27.40;54.90;;;;;;4938171;28;91574;-59
2022/08/04 00:31:10;;;;;;;64.95;52.33;;;27.40;54.90;;;;;;4936118;28;92069;-53
2022/08/04 00:33:42;;;;;;;63.95;52.17;;;27.40;55.00;;;;;;4949717;28;90114;-57
2022/08/04 00:36:10;;;;;;;65.38;52.30;;;27.40;54.80;;;;;;4942199;28;90224;-59
2022/08/04 00:38:39;;;;;;;63.60;52.13;;;27.40;54.90;;;;;;4943718;28;93753;-58
2022/08/04 00:41:13;;;;;;;64.82;52.13;;;27.40;55.00;;;;;;4942597;28;92023;-57
2022/08/04 00:43:42;;;;;;;64.10;52.28;;;27.40;55.00;;;;;;4932802;28;93789;-58
2022/08/04 00:46:51;;;;;;;64.05;52.20;;;27.40;54.90;;;;;;4935715;28;90175;-55
2022/08/04 00:50:08;;;;;;;65.00;52.25;;;27.40;54.90;;;;;;4944204;28;90242;-55
2022/08/04 00:52:46;;;;;;;64.30;51.95;;;27.40;54.90;;;;;;4938833;28;90407;-57
2022/08/04 00:55:49;;;;;;;64.18;52.05;;;27.40;55.10;;;;;;4935492;28;90304;-58
2022/08/04 00:58:43;;;;;;;63.45;52.28;;;27.40;55.10;;;;;;4937438;28;91388;-58
2022/08/04 01:01:32;;;;;;;63.83;52.03;;;27.40;55.00;;;;;;4941594;28;92068;-57
2022/08/04 01:04:41;;;;;;;63.83;52.17;;;27.30;55.00;;;;;;4941712;28;93473;-59
2022/08/04 01:07:51;;;;;;;64.35;52.03;;;27.40;55.00;;;;;;4943394;28;90101;-56
2022/08/04 01:10:27;;;;;;;63.28;52.03;;;27.30;55.00;;;;;;4945430;28;90866;-54
2022/08/04 01:13:12;;;;;;;64.82;52.40;;;27.30;55.00;;;;;;4933763;28;90980;-58
2022/08/04 01:15:41;;;;;;;64.35;52.15;;;27.30;55.00;;;;;;4937642;28;95100;-53
2022/08/04 01:18:13;;;;;;;65.20;51.88;;;27.40;55.10;;;;;;4944493;28;96141;-58
2022/08/04 01:21:16;;;;;;;63.50;52.03;;;27.30;55.00;;;;;;4941000;28;90612;-54
2022/08/04 01:24:24;;;;;;;64.43;52.08;;;27.30;55.10;;;;;;4946041;28;90307;-56
2022/08/04 01:27:10;;;;;;;63.42;52.13;;;27.30;55.10;;;;;;4931633;28;91460;-54
2022/08/04 01:29:50;;;;;;;65.75;52.00;;;27.30;55.10;;;;;;4946382;28;89578;-54
2022/08/04 01:32:52;;;;;;;62.92;52.13;;;27.30;55.00;;;;;;4938438;28;91659;-58
2022/08/04 01:35:35;;;;;;;64.47;52.08;;;27.30;55.00;;;;;;4932025;28;89935;-57
2022/08/04 01:38:15;;;;;;;63.65;51.97;;;27.30;55.00;;;;;;4924286;28;94794;-56
2022/08/04 01:40:43;;;;;;;63.15;51.65;;;27.30;55.00;;;;;;4939410;28;90487;-57
2022/08/04 01:43:09;;;;;;;63.55;52.17;;;27.30;55.00;;;;;;4940980;28;90261;-56
2022/08/04 01:45:36;;;;;;;63.10;52.10;;;27.30;55.00;;;;;;4944842;28;90200;-59
2022/08/04 01:48:02;;;;;;;64.22;52.28;;;27.30;55.00;;;;;;4942089;28;91220;-56
2022/08/04 01:50:35;;;;;;;64.32;51.90;;;27.30;55.00;;;;;;4941002;28;90128;-54
2022/08/04 01:53:02;;;;;;;64.70;52.22;;;27.30;55.10;;;;;;4939141;28;90502;-59
2022/08/04 01:55:29;;;;;;;66.35;52.05;;;27.30;55.00;;;;;;4926809;28;90011;-55
2022/08/04 01:57:57;;;;;;;64.50;51.80;;;27.30;55.00;;;;;;4936391;28;90473;-58
2022/08/04 02:00:27;;;;;;;63.85;51.95;;;27.30;55.00;;;;;;4932425;28;90988;-57
2022/08/04 02:02:55;;;;;;;64.22;52.08;;;27.20;54.90;;;;;;4936089;28;92622;-54
2022/08/04 02:05:25;;;;;;;64.47;52.00;;;27.30;55.00;;;;;;4944032;28;92162;-56
2022/08/04 02:08:10;;;;;;;65.60;51.83;;;27.30;55.00;;;;;;4940058;28;91737;-52
2022/08/04 02:10:42;;;;;;;65.00;51.83;;;27.30;54.90;;;;;;4939274;28;90505;-56
2022/08/04 02:13:13;;;;;;;64.43;52.00;;;27.30;55.00;;;;;;4945740;28;90087;-58
2022/08/04 02:16:00;;;;;;;66.47;51.85;;;27.30;55.00;;;;;;4943827;28;94473;-55
2022/08/04 02:19:03;;;;;;;63.67;51.80;;;27.20;54.90;;;;;;4937519;28;94964;-57
2022/08/04 02:21:30;;;;;;;63.75;52.35;;;27.20;54.80;;;;;;4944219;28;90946;-59
2022/08/04 02:24:04;;;;;;;64.00;51.90;;;27.20;54.90;;;;;;4940988;28;94553;-57
2022/08/04 02:26:32;;;;;;;65.25;52.03;;;27.20;54.90;;;;;;4954343;28;91103;-58
2022/08/04 02:29:18;;;;;;;63.92;51.90;;;27.20;54.90;;;;;;4935332;28;91884;-58
2022/08/04 02:32:03;;;;;;;64.55;51.95;;;27.20;54.90;;;;;;4938706;28;93724;-58
2022/08/04 02:34:42;;;;;;;63.30;51.88;;;27.20;54.90;;;;;;4932700;28;91824;-56
2022/08/04 02:37:10;;;;;;;64.72;51.90;;;27.20;54.90;;;;;;4935107;28;90331;-58
2022/08/04 02:39:36;;;;;;;64.10;51.75;;;27.20;55.00;;;;;;4942183;28;91945;-59
2022/08/04 02:42:04;;;;;;;63.30;51.75;;;27.20;55.00;;;;;;4944222;28;89841;-58
2022/08/04 02:44:31;;;;;;;63.88;52.08;;;27.20;54.90;;;;;;4949742;28;91572;-56
2022/08/04 02:46:59;;;;;;;63.55;51.92;;;27.20;54.90;;;;;;4939213;28;90752;-57
2022/08/04 02:49:25;;;;;;;64.28;51.65;;;27.10;54.80;;;;;;4948112;28;91224;-58
2022/08/04 02:51:53;;;;;;;64.25;51.85;;;27.20;54.90;;;;;;4932252;28;90135;-58
2022/08/04 02:54:24;;;;;;;64.35;51.70;;;27.20;55.00;;;;;;4934568;28;93708;-59
2022/08/04 02:56:52;;;;;;;64.53;51.97;;;27.10;54.90;;;;;;4942357;28;93126;-58
2022/08/04 02:59:22;;;;;;;63.47;51.75;;;27.20;55.00;;;;;;4939054;28;89968;-58
2022/08/04 03:01:47;;;;;;;64.50;51.95;;;27.10;54.90;;;;;;4933986;28;91501;-59
2022/08/04 03:04:13;;;;;;;64.50;51.60;;;27.10;55.00;;;;;;4938436;28;91826;-57
2022/08/04 03:06:59;;;;;;;62.67;52.03;;;27.10;54.90;;;;;;4944769;28;89939;-53
2022/08/04 03:09:51;;;;;;;63.67;51.75;;;27.10;55.00;;;;;;4955565;28;90917;-57
2022/08/04 03:12:33;;;;;;;62.88;51.88;;;27.10;54.90;;;;;;4947383;28;90069;-58
2022/08/04 03:15:20;;;;;;;63.97;51.70;;;27.10;55.00;;;;;;4937453;28;93586;-59
2022/08/04 03:18:21;;;;;;;63.20;51.72;;;27.10;55.00;;;;;;4949943;28;89797;-56
2022/08/04 03:21:16;;;;;;;64.03;51.88;;;27.10;55.60;;;;;;4948778;28;96150;-55
2022/08/04 03:23:59;;;;;;;63.97;51.85;;;27.10;55.00;;;;;;4938131;28;90844;-56
2022/08/04 03:26:44;;;;;;;63.28;51.75;;;27.10;55.00;;;;;;4936540;28;91276;-57
2022/08/04 03:29:39;;;;;;;64.45;51.75;;;27.10;55.00;;;;;;4943664;28;89963;-51
2022/08/04 03:32:10;;;;;;;62.80;51.45;;;27.10;55.00;;;;;;4934992;28;93452;-58
2022/08/04 03:34:45;;;;;;;62.97;51.90;;;27.10;55.00;;;;;;4944803;28;89905;-55
2022/08/04 03:37:37;;;;;;;62.38;51.45;;;27.10;55.10;;;;;;4940823;28;90214;-58
2022/08/04 03:40:24;;;;;;;63.80;51.92;;;27.10;55.00;;;;;;4945793;28;91343;-52
2022/08/04 03:43:05;;;;;;;62.17;51.42;;;27.00;54.90;;;;;;4942096;28;91247;-57
2022/08/04 03:46:02;;;;;;;63.30;51.60;;;27.00;55.00;;;;;;4932413;28;91912;-54
2022/08/04 03:48:58;;;;;;;64.45;51.58;;;27.00;55.00;;;;;;4934982;28;91570;-54
2022/08/04 03:54:49;;;;;;;64.55;51.60;;;27.00;55.00;;;;;;4936905;28;90298;-56
2022/08/04 03:57:45;;;;;;;63.05;51.75;;;27.00;55.00;;;;;;4933754;28;94027;-58
2022/08/04 04:00:20;;;;;;;64.20;51.70;;;27.00;55.00;;;;;;4944223;28;91189;-55
2022/08/04 04:03:03;;;;;;;63.65;51.67;;;27.00;55.00;;;;;;4943622;28;96892;-54
2022/08/04 04:05:36;;;;;;;63.35;51.67;;;27.00;55.00;;;;;;4927408;28;95130;-58
2022/08/04 04:08:25;;;;;;;63.05;51.63;;;27.00;55.00;;;;;;4937890;28;88868;-57
2022/08/04 04:11:17;;;;;;;63.22;51.47;;;27.00;55.00;;;;;;4939756;28;93074;-58
2022/08/04 04:14:07;;;;;;;63.15;51.40;;;27.00;55.00;;;;;;4935664;28;95790;-59
2022/08/04 04:16:56;;;;;;;62.72;51.55;;;27.00;55.10;;;;;;4936803;28;91214;-55
2022/08/04 04:20:03;;;;;;;64.00;51.75;;;26.90;55.10;;;;;;4948955;28;91397;-58
2022/08/04 04:23:10;;;;;;;64.90;51.65;;;27.00;55.00;;;;;;4938576;28;89945;-56
2022/08/04 04:26:02;;;;;;;63.15;51.63;;;26.90;55.00;;;;;;4938752;28;91430;-58
2022/08/04 04:28:47;;;;;;;62.85;51.60;;;26.90;55.10;;;;;;4944035;28;89836;-57
2022/08/04 04:31:42;;;;;;;63.38;51.63;;;26.90;55.20;;;;;;4937841;28;94181;-55
2022/08/04 04:34:14;;;;;;;63.80;51.53;;;26.90;55.00;;;;;;4934066;28;90273;-58
2022/08/04 04:37:06;;;;;;;65.75;51.65;;;26.90;55.10;;;;;;4941791;28;89702;-56
2022/08/04 04:39:45;;;;;;;62.78;51.65;;;26.90;55.10;;;;;;4946097;28;91681;-53
2022/08/04 04:42:16;;;;;;;63.40;51.65;;;26.90;55.10;;;;;;4929854;28;92257;-54
2022/08/04 04:44:56;;;;;;;;;;;26.90;55.20;;;;;;4938547;28;95706;-58
2022/08/04 04:47:54;;;;;;;62.65;51.30;;;26.90;55.20;;;;;;4939018;28;91674;-57
2022/08/04 04:50:35;;;;;;;61.95;51.65;;;26.90;55.10;;;;;;4940575;28;89852;-55
2022/08/04 04:53:41;;;;;;;63.55;51.50;;;26.90;55.50;;;;;;4930459;28;93017;-56
2022/08/04 04:56:42;;;;;;;65.97;51.72;;;26.80;55.40;;;;;;4935655;28;95253;-58
2022/08/04 04:59:14;;;;;;;63.95;51.63;;;26.60;55.10;;;;;;4935182;28;89651;-58
2022/08/04 05:02:13;;;;;;;64.05;51.47;;;26.50;55.20;;;;;;4939812;28;95760;-54
2022/08/04 05:05:16;;;;;;;64.20;51.50;;;26.50;55.50;;;;;;4924005;28;90949;-54
2022/08/04 05:08:01;;;;;;;65.20;51.55;;;26.40;55.50;;;;;;4932936;28;91824;-58
2022/08/04 05:10:44;;;;;;;65.88;51.45;;;26.30;55.50;;;;;;4941504;28;90426;-58
2022/08/04 05:13:38;;;;;;;67.18;52.20;;;26.30;55.50;;;;;;4928056;28;91723;-57
2022/08/04 05:16:15;;;;;;;64.32;51.33;;;26.20;55.50;;;;;;4948069;28;91479;-52
2022/08/04 05:18:44;;;;;;;64.20;51.75;;;26.20;55.60;;;;;;4935783;28;94717;-55
2022/08/04 05:21:28;;;;;;;65.50;51.45;;;26.10;55.80;;;;;;4938374;28;93165;-54
2022/08/04 05:24:03;;;;;;;64.47;51.63;;;26.10;56.00;;;;;;4924280;28;91059;-55
2022/08/04 05:26:42;;;;;;;65.03;51.38;;;26.10;56.50;;;;;;4940961;28;90694;-59
2022/08/04 05:29:28;;;;;;;63.67;51.47;;;26.20;56.00;;;;;;4942465;28;89689;-58
2022/08/04 05:31:55;;;;;;;63.88;51.72;;;26.10;56.10;;;;;;4954753;28;95765;-58
2022/08/04 05:34:26;;;;;;;66.53;51.80;;;26.00;56.30;;;;;;4939702;28;91809;-58
2022/08/04 05:37:00;;;;;;;63.72;51.70;;;26.10;56.60;;;;;;4937703;28;95073;-56
2022/08/04 05:39:35;;;;;;;66.68;52.13;;;26.00;56.70;;;;;;4937942;28;90913;-52
2022/08/04 05:42:03;;;;;;;66.63;51.85;;;26.00;57.00;;;;;;4944510;28;90743;-55
2022/08/04 05:44:29;;;;;;;65.65;51.88;;;26.00;57.20;;;;;;4941450;28;90458;-57
2022/08/04 05:46:57;;;;;;;64.45;51.78;;;26.00;57.20;;;;;;4932761;28;91125;-57
2022/08/04 05:49:24;;;;;;;65.95;52.20;;;26.00;57.30;;;;;;4929142;28;92770;-57
2022/08/04 05:51:51;;;;;;;67.80;52.47;;;26.00;57.50;;;;;;4938291;28;90038;-56
2022/08/04 05:54:19;;;;;;;68.03;52.55;;;26.00;58.20;;;;;;4941681;28;95501;-57
2022/08/04 05:56:46;;;;;;;68.22;52.80;;;26.00;57.90;;;;;;4937294;28;92358;-56
2022/08/04 05:59:12;;;;;;;66.38;52.45;;;26.00;58.00;;;;;;4940895;28;91864;-57
2022/08/04 06:01:39;;;;;;;64.25;52.30;;;25.90;58.00;;;;;;4943750;28;96098;-58
2022/08/04 06:04:06;;;;;;;65.63;52.60;;;25.90;58.10;;;;;;4937463;28;95499;-59
2022/08/04 06:06:32;;;;;;;64.65;52.63;;;25.90;58.10;;;;;;4937456;28;90784;-58
2022/08/04 06:08:58;;;;;;;65.10;52.80;;;25.80;58.30;;;;;;4933774;28;91350;-54
2022/08/04 06:11:28;;;;;;;65.72;52.65;;;25.80;58.30;;;;;;4948153;28;91124;-55
2022/08/04 06:14:00;;;;;;;65.80;52.88;;;25.80;58.40;;;;;;4934462;28;91502;-56
2022/08/04 06:16:33;;;;;;;71.05;54.45;;;25.80;58.30;;;;;;4919770;28;91907;-56
2022/08/04 06:19:06;;;;;;;68.90;55.30;;;25.90;58.50;;;;;;4936492;28;93316;-56
2022/08/04 06:21:33;;;;;;;69.15;54.65;;;25.80;59.10;;;;;;4920288;28;90404;-58
2022/08/04 06:24:00;;;;;;;77.88;59.00;;;25.80;59.10;;;;;;4942787;28;89913;-58
2022/08/04 06:26:28;;;;;;;86.53;63.60;;;25.70;59.30;;;;;;4944679;28;94149;-56
2022/08/04 06:28:55;;;;;;;87.88;64.32;;;25.60;59.60;;;;;;4942936;28;91913;-59
2022/08/04 06:32:26;;;;;;;86.07;63.13;;;25.40;60.10;;;;;;4934700;28;90032;-59
2022/08/04 06:34:18;;;;;;;83.55;61.17;;;25.40;60.40;;;;;;4932374;28;93269;-57
2022/08/04 06:36:46;;;;;;;85.68;62.72;;;25.20;61.10;;;;;;4949346;28;91325;-58
2022/08/04 06:39:12;;;;;;;82.18;61.17;;;25.10;61.30;;;;;;4937541;28;90212;-57
2022/08/04 06:41:42;;;;;;;84.70;62.78;;;24.90;62.00;;;;;;4941126;28;95919;-58
2022/08/04 06:44:10;;;;;;;79.32;59.78;;;25.00;62.10;;;;;;4945473;28;90480;-58
2022/08/04 06:46:38;;;;;;;84.78;62.30;;;25.00;62.20;;;;;;4927842;28;90847;-54
2022/08/04 06:49:05;;;;;;;83.38;62.28;;;25.10;62.10;;;;;;4949785;28;90259;-55
2022/08/04 06:51:35;;;;;;;82.28;62.08;;;25.20;61.90;;;;;;4951271;28;91134;-55
2022/08/04 06:54:01;;;;;;;83.85;60.13;;;25.00;62.20;;;;;;4929742;28;91117;-54
2022/08/04 06:56:35;;;;;;;82.72;61.10;;;25.10;62.30;;;;;;4947539;28;89770;-53
2022/08/04 06:59:02;;;;;;;77.75;59.67;;;25.00;62.10;;;;;;4943686;28;89867;-51
2022/08/04 07:01:29;;;;;;;79.97;60.67;;;25.10;62.10;;;;;;4940201;28;90050;-55
2022/08/04 07:03:55;;;;;;;78.60;60.53;;;25.00;62.20;;;;;;4936397;28;93540;-55
2022/08/04 07:06:24;;;;;;;77.10;59.40;;;25.20;61.80;;;;;;4945193;28;89659;-59
2022/08/04 07:08:50;;;;;;;74.65;59.58;;;25.10;62.10;;;;;;4949682;28;91888;-56
2022/08/04 07:11:20;;;;;;;74.95;58.17;;;25.10;62.10;;;;;;4947475;28;93210;-58
2022/08/04 07:13:46;;;;;;;77.53;60.40;;;25.20;62.20;;;;;;4938076;28;90121;-56
2022/08/04 07:16:14;;;;;;;78.93;61.70;;;25.10;62.20;;;;;;4953127;28;90044;-56
2022/08/04 07:18:40;;;;;;;77.32;60.78;;;25.00;63.20;;;;;;4932692;28;91842;-53
2022/08/04 07:21:06;;;;;;;77.95;60.33;;;25.00;63.40;;;;;;4940927;28;90526;-55
2022/08/04 07:23:34;;;;;;;76.95;60.80;;;25.00;63.00;;;;;;4933819;28;90293;-54
2022/08/04 07:26:01;;;;;;;74.53;58.88;;;25.00;63.00;;;;;;4948977;28;90258;-56
2022/08/04 07:28:28;;;;;;;75.70;59.38;;;25.00;63.40;;;;;;4937880;28;89842;-57
2022/08/04 07:30:59;;;;;;;72.32;58.25;;;25.00;63.80;;;;;;4929510;28;91630;-57
2022/08/04 07:33:26;;;;;;;74.07;59.00;;;25.00;64.30;;;;;;4930493;28;91764;-56
2022/08/04 07:35:55;;;;;;;77.25;60.45;;;25.00;64.40;;;;;;4942053;28;89144;-52
2022/08/04 07:38:21;;;;;;;79.70;60.30;;;25.10;64.10;;;;;;4933769;28;93563;-59
2022/08/04 07:40:47;;;;;;;78.57;60.47;;;24.90;64.50;;;;;;4940145;28;89678;-53
2022/08/04 07:43:17;;;;;;;79.93;61.22;;;24.80;64.70;;;;;;4936132;28;90961;-56
2022/08/04 07:45:43;;;;;;;76.22;59.10;;;24.90;64.60;;;;;;4937626;28;93734;-59
2022/08/04 07:48:10;;;;;;;78.10;60.45;;;25.00;64.60;;;;;;4941615;28;90143;-60
2022/08/04 07:50:37;;;;;;;73.20;58.15;;;25.00;64.20;;;;;;4932683;28;92628;-60
2022/08/04 07:53:03;;;;;;;78.05;59.92;;;25.00;64.70;;;;;;4942006;28;91686;-53
2022/08/04 07:55:29;;;;;;;81.55;62.22;;;24.90;65.20;;;;;;4943581;28;94642;-56
2022/08/04 07:57:55;;;;;;;80.05;61.15;;;24.70;65.20;;;;;;4955436;28;90301;-55
2022/08/04 08:00:21;;;;;;;74.93;59.03;;;24.70;65.20;;;;;;4950760;28;89092;-56
2022/08/04 08:02:51;;;;;;;84.20;62.58;;;24.80;65.60;;;;;;4944507;28;91614;-56
2022/08/04 08:05:18;;;;;;;82.20;61.80;;;24.80;65.80;;;;;;4957183;28;89993;-56
2022/08/04 08:07:46;;;;;;;89.38;65.03;;;24.70;65.80;;;;;;4940735;28;90979;-57
2022/08/04 08:10:13;;;;;;;86.22;63.63;;;24.90;66.50;;;;;;4942301;28;90826;-55
2022/08/04 08:12:39;;;;;;;83.63;63.42;;;24.70;65.50;;;;;;4944137;28;95017;-55
2022/08/04 08:15:07;;;;;;;83.70;62.85;;;24.80;65.70;;;;;;4939848;28;94975;-55
2022/08/04 08:17:33;;;;;;;85.53;63.90;;;24.90;66.10;;;;;;4938528;28;90253;-54
2022/08/04 08:20:00;;;;;;;77.30;61.28;;;24.80;66.20;;;;;;4931003;28;90103;-58
2022/08/04 08:22:26;;;;;;;78.63;60.83;;;24.80;66.60;;;;;;4944402;28;91045;-60
2022/08/04 08:24:52;;;;;;;85.00;63.65;;;24.80;66.60;;;;;;4944702;28;89848;-58
2022/08/04 08:27:18;;;;;;;83.05;63.25;;;24.70;66.80;;;;;;4945968;28;90164;-61
2022/08/04 08:29:44;;;;;;;81.88;61.75;;;24.40;68.20;;;;;;4940632;28;90318;-57
2022/08/04 08:32:12;;;;;;;84.50;63.05;;;24.40;68.50;;;;;;4934494;28;94706;-55
2022/08/04 08:34:40;;;;;;;82.20;60.88;;;24.60;67.60;;;;;;4938426;28;91740;-58
2022/08/04 08:37:34;;;;;;;80.70;61.53;;;24.90;67.00;;;;;;4938494;28;90733;-54
2022/08/04 08:40:11;;;;;;;81.20;60.97;;;25.00;66.60;;;;;;4930025;28;93118;-57
2022/08/04 08:43:16;;;;;;;82.65;63.95;;;25.10;66.50;;;;;;4937868;28;95817;-58
2022/08/04 08:45:55;;;;;;;86.10;64.95;;;25.10;66.40;;;;;;4939263;28;92112;-56
2022/08/04 08:48:44;;;;;;;79.10;62.20;;;25.20;66.50;;;;;;4934909;28;91274;-55
2022/08/04 08:51:34;;;;;;;79.80;62.28;;;25.20;66.40;;;;;;4938775;28;91804;-51
2022/08/04 08:54:16;;;;;;;86.40;66.05;;;25.30;66.10;;;;;;4935803;28;96119;-57
2022/08/04 08:56:57;;;;;;;83.88;64.25;;;25.20;66.00;;;;;;4933880;28;93892;-52
2022/08/04 08:59:38;;;;;;;85.20;64.93;;;25.20;66.30;;;;;;4931798;28;95680;-51
2022/08/04 09:02:19;;;;;;;105.63;74.22;;;25.20;66.50;;;;;;4942806;28;90088;-57
2022/08/04 09:05:14;;;;;;;113.93;79.10;;;25.10;66.80;;;;;;4942162;28;91489;-61
2022/08/04 09:08:08;;;;;;;118.38;81.05;;;24.90;67.60;;;;;;4935271;28;91184;-47
2022/08/04 09:10:49;;;;;;;104.28;73.75;;;24.80;68.10;;;;;;4933378;28;91405;-56
2022/08/04 09:13:40;;;;;;;98.55;71.75;;;24.90;68.40;;;;;;4940820;28;93067;-55
2022/08/04 09:16:11;;;;;;;101.53;74.68;;;25.00;67.80;;;;;;4933390;28;95128;-54
2022/08/04 09:19:11;;;;;;;99.18;73.07;;;25.00;68.00;;;;;;4939687;28;95704;-61
2022/08/04 09:21:52;;;;;;;95.60;72.70;;;25.10;67.70;;;;;;4930224;28;93893;-53
2022/08/04 09:24:27;;;;;;;104.60;73.18;;;25.30;67.00;;;;;;4939304;28;90296;-52
2022/08/04 09:27:00;;;;;;;94.07;70.18;;;25.30;67.00;;;;;;4935506;28;93997;-59
2022/08/04 09:29:35;;;;;;;96.00;71.15;;;25.20;67.50;;;;;;4936112;28;90532;-55
2022/08/04 09:32:09;;;;;;;92.07;68.20;;;25.40;67.60;;;;;;4929881;28;93748;-56
2022/08/04 09:35:00;;;;;;;96.68;70.20;;;25.40;67.50;;;;;;4934112;28;90085;-59
2022/08/04 09:37:41;;;;;;;96.10;72.32;;;25.30;67.30;;;;;;4935324;28;94231;-57
2022/08/04 09:40:24;;;;;;;91.38;68.80;;;25.20;67.10;;;;;;4932326;28;90892;-59
2022/08/04 09:43:11;;;;;;;90.97;68.32;;;25.10;67.60;;;;;;4940330;28;97229;-59
2022/08/04 09:45:47;;;;;;;92.75;67.72;;;25.30;67.10;;;;;;4935481;28;90208;-59
2022/08/04 09:48:22;;;;;;;95.22;71.45;;;25.50;66.70;;;;;;4935422;28;89603;-51
2022/08/04 09:50:56;;;;;;;103.78;73.32;;;25.40;66.50;;;;;;4941890;28;90294;-51
2022/08/04 09:53:59;;;;;;;95.28;68.18;;;25.10;67.00;;;;;;4930007;28;91544;-59
2022/08/04 09:56:37;;;;;;;91.78;68.45;;;25.10;67.20;;;;;;4950538;28;90525;-55
2022/08/04 09:59:15;;;;;;;93.65;69.30;;;25.20;66.40;;;;;;4927796;28;92342;-60
2022/08/04 10:01:42;;;;;;;90.40;67.53;;;25.00;66.80;;;;;;4930653;28;94881;-59
2022/08/04 10:04:12;;;;;;;92.72;69.57;;;24.90;67.50;;;;;;4941273;28;89852;-59
2022/08/04 10:07:03;;;;;;;87.40;66.18;;;25.10;66.80;;;;;;4940846;28;90185;-57
2022/08/04 10:10:02;;;;;;;87.35;65.80;;;25.30;66.30;;;;;;4942852;28;94138;-57
2022/08/04 10:12:42;;;;;;;88.38;67.82;;;25.40;65.70;;;;;;4934692;28;91639;-57
2022/08/04 10:15:26;;;;;;;93.45;70.38;;;25.40;65.70;;;;;;4933798;28;90185;-57
2022/08/04 10:18:14;;;;;;;94.32;69.47;;;25.40;65.90;;;;;;4930168;28;92810;-55
2022/08/04 10:21:02;;;;;;;89.88;68.30;;;25.30;66.80;;;;;;4945697;28;92947;-52
2022/08/04 10:23:46;;;;;;;86.13;66.05;;;25.20;66.90;;;;;;4938481;28;95367;-54
2022/08/04 10:26:45;;;;;;;82.13;63.17;;;25.20;67.20;;;;;;4947140;28;92233;-59
2022/08/04 10:29:51;;;;;;;87.15;65.80;;;25.30;66.90;;;;;;4947378;28;90741;-58
2022/08/04 10:32:23;;;;;;;80.22;62.35;;;25.20;66.60;;;;;;4930149;28;91777;-57
2022/08/04 10:35:28;;;;;;;87.80;66.75;;;25.30;66.80;;;;;;4940733;28;90018;-54
2022/08/04 10:38:14;;;;;;;81.70;63.40;;;25.40;66.70;;;;;;4931049;28;89565;-57
2022/08/04 10:40:59;;;;;;;91.05;66.13;;;25.40;66.60;;;;;;4930879;28;91896;-61
2022/08/04 10:44:02;;;;;;;88.63;66.90;;;25.30;66.90;;;;;;4940650;28;91498;-54
2022/08/04 10:46:36;;;;;;;93.07;68.93;;;25.40;67.50;;;;;;4938212;28;90475;-51
2022/08/04 10:49:06;;;;;;;85.15;65.32;;;25.30;67.30;;;;;;4937511;28;90471;-57
2022/08/04 10:51:51;;;;;;;;;;;25.40;67.30;;;;;;4955139;28;89789;-58
2022/08/04 10:54:36;;;;;;;84.22;64.78;;;25.60;66.80;;;;;;4942767;28;90968;-56
2022/08/04 10:57:07;;;;;;;86.13;64.15;;;25.60;66.80;;;;;;4944509;28;89975;-57
2022/08/04 11:00:04;;;;;;;83.57;64.35;;;25.80;66.80;;;;;;4938446;28;90962;-57
2022/08/04 11:02:48;;;;;;;81.35;62.25;;;25.80;66.70;;;;;;4929880;28;96196;-57
2022/08/04 11:05:34;;;;;;;83.78;64.15;;;25.80;67.20;;;;;;4922978;28;90032;-56
2022/08/04 11:08:04;;;;;;;85.78;65.15;;;25.90;67.20;;;;;;4930544;28;91003;-55
2022/08/04 11:10:43;;;;;;;87.50;65.30;;;25.90;66.20;;;;;;4938694;28;91555;-58
2022/08/04 11:13:12;;;;;;;84.03;63.22;;;25.90;66.30;;;;;;4938386;28;99628;-61
2022/08/04 11:15:43;;;;;;;80.47;61.97;;;25.90;66.00;;;;;;4952771;28;91679;-61
2022/08/04 11:18:41;;;;;;;86.05;64.43;;;26.00;65.90;;;;;;4947395;28;92703;-62
2022/08/04 11:21:18;;;;;;;81.82;62.90;;;26.00;65.80;;;;;;4946073;28;89976;-53
2022/08/04 11:23:54;;;;;;;84.22;64.40;;;26.10;65.60;;;;;;4936369;28;93090;-57
2022/08/04 11:26:58;;;;;;;83.50;64.25;;;26.10;65.30;;;;;;4946162;28;90463;-62
2022/08/04 11:29:53;;;;;;;77.88;61.70;;;26.10;65.20;;;;;;4941896;28;90998;-57
2022/08/04 11:32:23;;;;;;;84.88;64.22;;;26.20;64.90;;;;;;4923440;28;94229;-57
2022/08/04 11:34:55;;;;;;;81.70;63.30;;;26.30;64.90;;;;;;4935875;28;91147;-58
2022/08/04 11:37:32;;;;;;;87.43;64.05;;;26.30;64.40;;;;;;4940413;28;90668;-61
2022/08/04 11:40:08;;;;;;;83.30;62.75;;;26.30;64.00;;;;;;4929280;28;90562;-57
2022/08/04 11:42:47;;;;;;;79.22;61.95;;;26.40;64.20;;;;;;4944783;28;92450;-49
2022/08/04 11:45:23;;;;;;;81.88;62.75;;;26.30;63.60;;;;;;4943502;28;91595;-58
2022/08/04 11:48:00;;;;;;;78.82;61.63;;;26.40;63.70;;;;;;4943083;28;90116;-58
2022/08/04 11:50:34;;;;;;;80.10;61.10;;;26.50;63.80;;;;;;4940942;28;90936;-57
2022/08/04 11:53:01;;;;;;;77.80;60.60;;;26.50;63.80;;;;;;4928503;28;90382;-55
2022/08/04 11:55:28;;;;;;;77.15;60.55;;;26.60;63.60;;;;;;4939303;28;91806;-54
2022/08/04 11:57:55;;;;;;;79.65;61.70;;;26.60;63.50;;;;;;4947338;28;91726;-55
2022/08/04 12:00:24;;;;;;;82.18;63.03;;;26.70;63.30;;;;;;4943032;28;89508;-58
2022/08/04 12:02:58;;;;;;;76.22;60.72;;;26.60;63.00;;;;;;4924374;28;91780;-54
2022/08/04 12:05:40;;;;;;;82.85;62.72;;;26.60;63.10;;;;;;4933359;28;91278;-57
2022/08/04 12:08:47;;;;;;;80.45;62.13;;;26.60;62.90;;;;;;4928297;28;91319;-52
2022/08/04 12:11:32;;;;;;;82.28;62.28;;;26.70;63.00;;;;;;4939829;28;91476;-54
2022/08/04 12:14:16;;;;;;;84.30;62.80;;;26.70;62.60;;;;;;4939314;28;89899;-54
2022/08/04 12:16:51;;;;;;;84.07;63.30;;;26.70;61.70;;;;;;4930641;28;89578;-57
2022/08/04 12:19:25;;;;;;;79.47;61.63;;;26.70;61.50;;;;;;4921917;28;90093;-57
2022/08/04 12:21:54;;;;;;;78.63;60.20;;;26.70;61.90;;;;;;4948083;28;90515;-51
2022/08/04 12:24:37;;;;;;;75.18;59.95;;;26.80;62.20;;;;;;4939338;28;92672;-56
2022/08/04 12:27:16;;;;;;;75.43;60.42;;;26.80;62.10;;;;;;4936957;28;89321;-53
2022/08/04 12:29:44;;;;;;;75.65;59.35;;;26.80;62.00;;;;;;4931866;28;96947;-58
2022/08/04 12:32:41;;;;;;;76.80;58.78;;;26.90;61.80;;;;;;4929832;28;94481;-59
2022/08/04 12:35:16;;;;;;;75.30;58.78;;;27.00;61.40;;;;;;4939700;28;90584;-55
2022/08/04 12:37:42;;;;;;;75.65;59.22;;;27.10;60.90;;;;;;4936187;28;89578;-54
2022/08/04 12:40:15;;;;;;;73.80;58.55;;;27.10;60.60;;;;;;4931179;28;92563;-54
2022/08/04 12:42:57;;;;;;;74.72;58.78;;;27.20;60.50;;;;;;4933018;28;93412;-61
2022/08/04 12:45:24;;;;;;;76.25;58.88;;;27.20;60.50;;;;;;4942658;28;91100;-55
2022/08/04 12:47:52;;;;;;;74.47;58.47;;;27.30;60.00;;;;;;4936910;28;91489;-48
2022/08/04 12:50:19;;;;;;;73.72;58.47;;;27.30;60.20;;;;;;4943268;28;90363;-57
2022/08/04 12:52:51;;;;;;;74.80;58.70;;;27.30;59.70;;;;;;4941890;28;95756;-57
2022/08/04 12:55:20;;;;;;;75.32;58.88;;;27.30;59.60;;;;;;4925119;28;91385;-58
2022/08/04 12:57:48;;;;;;;76.07;58.83;;;27.30;59.70;;;;;;4945111;28;90221;-60
2022/08/04 13:00:28;;;;;;;73.93;58.15;;;27.30;59.90;;;;;;4930061;28;91759;-59
2022/08/04 13:02:58;;;;;;;74.65;58.28;;;27.40;59.60;;;;;;4915385;28;91272;-60
2022/08/04 13:05:27;;;;;;;73.93;58.90;;;27.30;60.00;;;;;;4938673;28;90026;-61
2022/08/04 13:07:55;;;;;;;71.85;58.15;;;27.30;59.40;;;;;;4939615;27;89817;-61
2022/08/04 13:10:23;;;;;;;73.15;58.03;;;27.40;59.40;;;;;;4922956;28;90551;-61
2022/08/04 13:12:55;;;;;;;74.30;58.05;;;27.40;59.00;;;;;;4936799;28;91282;-61
2022/08/04 13:15:23;;;;;;;74.32;58.35;;;27.40;58.80;;;;;;4943625;28;91263;-61
2022/08/04 13:17:53;;;;;;;73.97;58.63;;;27.40;58.90;;;;;;4942253;28;89551;-61
2022/08/04 13:20:27;;;;;;;72.30;58.05;;;27.40;58.60;;;;;;4933186;28;91017;-61
2022/08/04 13:23:09;;;;;;;73.82;58.53;;;27.50;58.90;;;;;;4938043;28;90668;-57